createdAt,value
2023-04-23T00:01:17.843Z,6.60
2023-04-23T00:03:46.162Z,1.83
2023-04-23T00:06:13.802Z,2.87
2023-04-23T00:08:41.493Z,3.07
2023-04-23T00:11:09.993Z,2.60
2023-04-23T00:13:37.655Z,1.47
2023-04-23T00:16:05.153Z,2.77
2023-04-23T00:18:32.524Z,3.07
2023-04-23T00:20:59.457Z,1.80
2023-04-23T00:23:26.790Z,2.03
2023-04-23T00:25:53.928Z,2.17
2023-04-23T00:28:22.258Z,1.83
2023-04-23T00:30:49.457Z,1.57
2023-04-23T00:33:16.594Z,2.73
2023-04-23T00:35:43.616Z,1.80
2023-04-23T00:38:10.547Z,2.93
2023-04-23T00:40:37.596Z,1.87
2023-04-23T00:43:05.029Z,4.47
2023-04-23T00:45:32.118Z,3.50
2023-04-23T00:47:59.351Z,4.10
2023-04-23T00:50:26.445Z,3.30
2023-04-23T00:52:53.438Z,1.70
2023-04-23T00:55:21.306Z,2.23
2023-04-23T00:57:48.716Z,1.93
2023-04-23T01:00:16.115Z,3.00
2023-04-23T01:02:44.464Z,1.73
2023-04-23T01:05:13.547Z,6.70
2023-04-23T01:07:42.038Z,2.57
2023-04-23T01:10:09.743Z,3.03
2023-04-23T01:12:36.799Z,2.87
2023-04-23T01:15:05.367Z,3.33
2023-04-23T01:17:34.463Z,4.67
2023-04-23T01:20:01.543Z,3.87
2023-04-23T01:22:28.490Z,2.90
2023-04-23T01:24:55.839Z,2.57
2023-04-23T01:27:24.914Z,2.20
2023-04-23T01:29:52.499Z,4.20
2023-04-23T01:32:20.324Z,2.93
2023-04-23T01:34:48.306Z,3.70
2023-04-23T01:37:16.833Z,2.60
2023-04-23T01:39:43.776Z,2.50
2023-04-23T01:42:11.149Z,2.53
2023-04-23T01:44:38.143Z,1.90
2023-04-23T01:47:07.081Z,2.93
2023-04-23T01:49:34.337Z,1.97
2023-04-23T01:52:01.306Z,1.63
2023-04-23T01:54:28.276Z,2.37
2023-04-23T01:56:55.893Z,1.70
2023-04-23T01:59:23.007Z,2.77
2023-04-23T02:01:50.640Z,2.27
2023-04-23T02:04:19.601Z,3.07
2023-04-23T02:06:48.781Z,6.43
2023-04-23T02:09:15.824Z,3.83
2023-04-23T02:11:42.803Z,3.63
2023-04-23T02:14:10.279Z,4.03
2023-04-23T02:16:37.396Z,2.97
2023-04-23T02:19:04.589Z,4.50
2023-04-23T02:21:31.819Z,4.63
2023-04-23T02:23:58.791Z,4.00
2023-04-23T02:26:25.838Z,3.80
2023-04-23T02:28:52.721Z,2.73
2023-04-23T02:31:20.994Z,4.17
2023-04-23T02:33:48.169Z,3.83
2023-04-23T02:36:16.175Z,2.60
2023-04-23T02:38:44.943Z,5.17
2023-04-23T02:41:12.495Z,3.00
2023-04-23T02:43:39.395Z,4.93
2023-04-23T02:46:12.374Z,3.37
2023-04-23T02:48:41.295Z,3.63
2023-04-23T02:51:12.947Z,3.70
2023-04-23T02:53:39.955Z,3.77
2023-04-23T02:56:07.495Z,1.73
2023-04-23T02:58:34.671Z,2.53
2023-04-23T03:01:02.058Z,4.87
2023-04-23T03:03:32.223Z,5.50
2023-04-23T03:06:00.989Z,3.00
2023-04-23T03:08:28.319Z,3.80
2023-04-23T03:10:55.267Z,2.13
2023-04-23T03:13:22.176Z,4.83
2023-04-23T03:15:50.127Z,4.57
2023-04-23T03:18:17.059Z,2.70
2023-04-23T03:20:43.985Z,2.67
2023-04-23T03:23:10.988Z,3.70
2023-04-23T03:25:37.988Z,4.17
2023-04-23T03:28:05.179Z,1.77
2023-04-23T03:30:52.108Z,3.57
2023-04-23T03:33:19.191Z,2.73
2023-04-23T03:35:46.245Z,5.10
2023-04-23T03:38:13.254Z,3.23
2023-04-23T03:40:40.188Z,4.60
2023-04-23T03:43:07.109Z,5.23
2023-04-23T03:45:34.048Z,3.67
2023-04-23T03:48:01.075Z,5.03
2023-04-23T03:50:28.072Z,3.93
2023-04-23T03:52:54.974Z,3.60
2023-04-23T03:55:21.950Z,3.33
2023-04-23T03:57:48.956Z,4.77
2023-04-23T04:00:16.190Z,2.83
2023-04-23T04:02:43.405Z,1.93
2023-04-23T04:05:13.735Z,2.27
2023-04-23T04:07:41.277Z,2.93
2023-04-23T04:10:08.650Z,3.53
2023-04-23T04:12:36.539Z,4.77
2023-04-23T04:15:04.579Z,3.93
2023-04-23T04:17:31.557Z,3.73
2023-04-23T04:19:59.012Z,3.87
2023-04-23T04:22:25.919Z,3.83
2023-04-23T04:24:53.202Z,5.90
2023-04-23T04:27:20.790Z,4.00
2023-04-23T04:29:48.438Z,2.90
2023-04-23T04:32:15.445Z,3.13
2023-04-23T04:34:43.185Z,4.73
2023-04-23T04:37:11.620Z,4.03
2023-04-23T04:39:38.585Z,2.67
2023-04-23T04:42:07.307Z,3.93
2023-04-23T04:44:37.512Z,3.97
2023-04-23T04:47:05.644Z,3.67
2023-04-23T04:49:32.565Z,7.57
2023-04-23T04:51:59.610Z,3.13
2023-04-23T04:54:26.509Z,3.17
2023-04-23T04:56:53.384Z,3.93
2023-04-23T04:59:20.347Z,3.50
2023-04-23T05:01:47.769Z,4.33
2023-04-23T05:04:14.910Z,2.63
2023-04-23T05:06:41.972Z,2.27
2023-04-23T05:09:09.077Z,2.23
2023-04-23T05:11:36.054Z,3.13
2023-04-23T05:14:04.482Z,2.50
2023-04-23T05:16:31.520Z,5.80
2023-04-23T05:18:58.463Z,3.80
2023-04-23T05:21:27.514Z,2.57
2023-04-23T05:23:55.601Z,3.80
2023-04-23T05:26:22.568Z,3.53
2023-04-23T05:28:49.479Z,2.50
2023-04-23T05:31:16.446Z,3.17
2023-04-23T05:33:49.884Z,2.93
2023-04-23T05:36:18.016Z,1.73
2023-04-23T05:38:45.029Z,2.20
2023-04-23T05:41:11.999Z,1.67
2023-04-23T05:43:38.976Z,4.67
2023-04-23T05:46:07.522Z,3.17
2023-04-23T05:48:34.907Z,2.87
2023-04-23T05:51:02.009Z,4.43
2023-04-23T05:53:29.060Z,2.50
2023-04-23T05:55:56.058Z,4.43
2023-04-23T05:58:23.534Z,3.00
2023-04-23T06:00:50.546Z,2.97
2023-04-23T06:03:17.715Z,4.13
2023-04-23T06:05:44.859Z,1.90
2023-04-23T06:08:11.857Z,6.97
2023-04-23T06:10:38.744Z,2.60
2023-04-23T06:13:05.957Z,3.30
2023-04-23T06:15:32.955Z,1.87
2023-04-23T06:17:59.876Z,3.43
2023-04-23T06:20:26.909Z,3.97
2023-04-23T06:22:53.861Z,4.03
2023-04-23T06:25:20.925Z,6.53
2023-04-23T06:27:47.886Z,3.13
2023-04-23T06:30:14.894Z,2.20
2023-04-23T06:32:41.866Z,3.10
2023-04-23T06:35:09.411Z,6.20
2023-04-23T06:37:36.492Z,2.23
2023-04-23T06:40:03.640Z,11.07
2023-04-23T06:42:30.839Z,4.00
2023-04-23T06:44:59.559Z,1.70
2023-04-23T06:47:26.873Z,2.30
2023-04-23T06:49:53.823Z,1.90
2023-04-23T06:52:20.815Z,4.07
2023-04-23T06:54:48.282Z,2.07
2023-04-23T06:57:16.187Z,1.57
2023-04-23T06:59:43.126Z,2.03
2023-04-23T07:02:10.041Z,1.90
2023-04-23T07:04:37.057Z,1.57
2023-04-23T07:07:04.040Z,2.87
2023-04-23T07:09:30.983Z,2.27
2023-04-23T07:11:57.973Z,2.40
2023-04-23T07:14:25.549Z,2.60
2023-04-23T07:16:52.851Z,2.07
2023-04-23T07:19:19.817Z,3.83
2023-04-23T07:21:46.767Z,2.07
2023-04-23T07:24:13.683Z,6.87
2023-04-23T07:26:41.056Z,1.97
2023-04-23T07:29:10.586Z,3.87
2023-04-23T07:31:39.381Z,2.47
2023-04-23T07:34:06.675Z,1.53
2023-04-23T07:36:33.613Z,2.77
2023-04-23T07:39:00.620Z,3.03
2023-04-23T07:41:27.721Z,2.33
2023-04-23T07:43:55.060Z,1.43
2023-04-23T07:46:22.121Z,3.07
2023-04-23T07:48:49.217Z,3.83
2023-04-23T07:51:16.569Z,1.50
2023-04-23T07:53:43.500Z,1.67
2023-04-23T07:56:10.520Z,6.30
2023-04-23T07:58:37.541Z,1.47
2023-04-23T08:01:04.429Z,5.17
2023-04-23T08:03:31.636Z,2.30
2023-04-23T08:05:58.740Z,2.13
2023-04-23T08:08:25.648Z,2.63
2023-04-23T08:10:52.623Z,3.00
2023-04-23T08:13:19.838Z,2.93
2023-04-23T08:15:46.878Z,3.30
2023-04-23T08:18:13.876Z,2.40
2023-04-23T08:20:41.410Z,3.87
2023-04-23T08:23:08.349Z,1.83
2023-04-23T08:25:35.331Z,1.40
2023-04-23T08:28:02.468Z,4.30
2023-04-23T08:30:29.383Z,7.00
2023-04-23T08:32:57.148Z,2.07
2023-04-23T08:35:24.556Z,4.47
2023-04-23T08:37:51.560Z,4.10
2023-04-23T08:40:18.507Z,3.00
2023-04-23T08:42:57.818Z,2.80
2023-04-23T08:45:26.224Z,1.93
2023-04-23T08:48:00.269Z,3.53
2023-04-23T08:50:29.847Z,8.20
2023-04-23T08:52:58.167Z,3.53
2023-04-23T08:55:25.854Z,3.60
2023-04-23T08:57:53.076Z,4.27
2023-04-23T09:00:23.149Z,1.43
2023-04-23T09:02:51.006Z,2.30
2023-04-23T09:05:18.471Z,3.13
2023-04-23T09:07:45.663Z,2.23
2023-04-23T09:10:16.904Z,2.10
2023-04-23T09:12:45.483Z,2.27
2023-04-23T09:15:14.293Z,4.37
2023-04-23T09:17:44.050Z,7.00
2023-04-23T09:20:12.815Z,6.90
2023-04-23T09:22:54.266Z,4.07
2023-04-23T09:25:23.674Z,2.07
2023-04-23T09:27:52.254Z,3.90
2023-04-23T09:30:20.023Z,3.23
2023-04-23T09:32:47.668Z,5.87
2023-04-23T09:35:16.952Z,2.60
2023-04-23T09:37:49.702Z,2.50
2023-04-23T09:40:18.880Z,2.57
2023-04-23T09:42:54.715Z,2.33
2023-04-23T09:45:25.710Z,3.10
2023-04-23T09:47:57.602Z,5.87
2023-04-23T09:50:37.065Z,2.27
2023-04-23T09:53:05.007Z,1.83
2023-04-23T09:55:37.286Z,6.13
2023-04-23T09:58:05.371Z,1.90
2023-04-23T10:00:37.156Z,5.17
2023-04-23T10:03:06.939Z,1.97
2023-04-23T10:08:09.603Z,2.10
2023-04-23T10:10:47.078Z,3.70
2023-04-23T10:13:24.399Z,1.60
2023-04-23T10:15:52.481Z,1.47
2023-04-23T10:18:20.675Z,1.63
2023-04-23T10:20:49.829Z,3.30
2023-04-23T10:23:19.583Z,2.07
2023-04-23T10:25:48.253Z,1.17
2023-04-23T10:28:21.960Z,2.37
2023-04-23T10:30:49.842Z,4.27
2023-04-23T10:33:29.100Z,2.40
2023-04-23T10:35:58.035Z,1.87
2023-04-23T10:38:28.290Z,1.47
2023-04-23T10:40:56.611Z,2.90
2023-04-23T10:43:24.424Z,1.03
2023-04-23T10:45:51.388Z,1.27
2023-04-23T10:48:18.361Z,2.20
2023-04-23T10:51:02.378Z,2.33
2023-04-23T10:53:33.116Z,2.53
2023-04-23T10:56:07.713Z,4.33
2023-04-23T10:58:50.505Z,1.60
2023-04-23T11:01:19.172Z,3.33
2023-04-23T11:03:47.822Z,1.83
2023-04-23T11:06:51.352Z,3.33
2023-04-23T11:09:37.477Z,2.90
2023-04-23T11:12:08.104Z,3.20
2023-04-23T11:14:42.473Z,3.23
2023-04-23T11:17:13.310Z,2.93
2023-04-23T11:19:41.731Z,1.97
2023-04-23T11:22:20.440Z,2.40
2023-04-23T11:24:49.617Z,1.63
2023-04-23T11:27:18.779Z,1.67
2023-04-23T11:29:46.981Z,6.00
2023-04-23T11:32:16.924Z,2.03
2023-04-23T11:34:45.834Z,3.30
2023-04-23T11:37:17.175Z,2.10
2023-04-23T11:39:47.464Z,2.17
2023-04-23T11:42:15.473Z,2.00
2023-04-23T11:44:46.643Z,3.63
2023-04-23T11:47:16.714Z,2.00
2023-04-23T11:49:45.288Z,3.23
2023-04-23T11:52:13.034Z,3.90
2023-04-23T11:54:43.102Z,2.83
2023-04-23T11:57:10.541Z,2.87
2023-04-23T11:59:37.855Z,2.90
2023-04-23T12:02:05.009Z,1.93
2023-04-23T12:04:33.235Z,3.73
2023-04-23T12:07:00.744Z,1.97
2023-04-23T12:09:29.475Z,2.93
2023-04-23T12:11:58.609Z,1.50
2023-04-23T12:14:29.091Z,1.90
2023-04-23T12:16:57.321Z,5.80
2023-04-23T12:19:31.551Z,2.80
2023-04-23T12:22:03.425Z,3.97
2023-04-23T12:24:32.275Z,2.50
2023-04-23T12:27:02.621Z,2.40
2023-04-23T12:29:31.256Z,5.60
2023-04-23T12:31:59.795Z,2.40
2023-04-23T12:34:26.768Z,1.50
2023-04-23T12:36:57.576Z,2.20
2023-04-23T12:39:34.980Z,3.63
2023-04-23T12:42:06.990Z,2.63
2023-04-23T12:44:35.706Z,4.20
2023-04-23T12:47:03.757Z,2.17
2023-04-23T12:49:31.844Z,1.67
2023-04-23T12:52:03.323Z,4.33
2023-04-23T12:54:32.067Z,2.60
2023-04-23T12:57:01.977Z,2.70
2023-04-23T12:59:29.667Z,2.43
2023-04-23T13:01:56.881Z,3.77
2023-04-23T13:04:23.861Z,3.30
2023-04-23T13:06:51.579Z,2.50
2023-04-23T13:09:18.620Z,2.77
2023-04-23T13:11:48.696Z,4.33
2023-04-23T13:14:16.275Z,2.57
2023-04-23T13:16:43.752Z,3.10
2023-04-23T13:19:10.860Z,1.30
2023-04-23T13:21:37.776Z,3.70
2023-04-23T13:24:05.053Z,3.83
2023-04-23T13:26:32.867Z,5.27
2023-04-23T13:29:01.138Z,3.83
2023-04-23T13:31:29.084Z,2.23
2023-04-23T13:33:56.319Z,3.67
2023-04-23T13:36:24.211Z,4.03
2023-04-23T13:38:51.273Z,3.67
2023-04-23T13:41:18.211Z,2.97
2023-04-23T13:43:45.293Z,4.70
2023-04-23T13:46:13.579Z,4.57
2023-04-23T13:48:40.617Z,8.40
2023-04-23T13:51:20.800Z,3.80
2023-04-23T13:53:54.404Z,4.80
2023-04-23T13:56:21.382Z,5.00
2023-04-23T13:58:48.954Z,5.17
2023-04-23T14:01:16.116Z,5.37
2023-04-23T14:03:43.057Z,5.93
2023-04-23T14:06:09.991Z,4.90
2023-04-23T14:08:38.320Z,4.53
2023-04-23T14:11:05.361Z,4.07
2023-04-23T14:13:32.899Z,2.80
2023-04-23T14:16:02.846Z,6.80
2023-04-23T14:18:30.675Z,5.57
2023-04-23T14:20:57.785Z,7.53
2023-04-23T14:23:27.504Z,4.13
2023-04-23T14:26:03.165Z,7.03
2023-04-23T14:28:41.031Z,3.67
2023-04-23T14:31:08.198Z,5.37
2023-04-23T14:33:35.173Z,5.47
2023-04-23T14:36:02.224Z,7.80
2023-04-23T14:38:29.300Z,5.00
2023-04-23T14:40:56.495Z,5.20
2023-04-23T14:43:23.433Z,6.73
2023-04-23T14:45:51.057Z,7.23
2023-04-23T14:48:18.060Z,7.73
2023-04-23T14:50:45.626Z,17.23
2023-04-23T14:53:12.660Z,16.00
2023-04-23T14:55:42.852Z,9.43
2023-04-23T14:58:10.163Z,6.93
2023-04-23T15:00:37.159Z,6.57
2023-04-23T15:03:10.461Z,11.23
2023-04-23T15:05:38.248Z,6.40
2023-04-23T15:08:05.238Z,9.33
2023-04-23T15:10:32.548Z,7.57
2023-04-23T15:13:20.755Z,7.43
2023-04-23T15:15:55.331Z,8.23
2023-04-23T15:18:22.379Z,6.73
2023-04-23T15:20:49.491Z,9.80
2023-04-23T15:23:19.369Z,8.13
2023-04-23T15:25:46.278Z,12.07
2023-04-23T15:28:13.189Z,13.37
2023-04-23T15:30:40.880Z,15.67
2023-04-23T15:33:07.777Z,28.67
2023-04-23T15:35:34.713Z,9.20
2023-04-23T15:38:01.618Z,9.80
2023-04-23T15:40:29.630Z,8.37
2023-04-23T15:42:56.857Z,7.57
2023-04-23T15:45:23.828Z,6.67
2023-04-23T15:47:53.562Z,8.93
2023-04-23T15:50:23.093Z,10.47
2023-04-23T15:52:50.625Z,5.90
2023-04-23T15:55:18.092Z,9.93
2023-04-23T15:57:45.015Z,11.90
2023-04-23T16:00:12.770Z,10.37
2023-04-23T16:02:39.929Z,13.10
2023-04-23T16:05:07.124Z,9.97
2023-04-23T16:07:34.104Z,12.10
2023-04-23T16:10:01.190Z,11.13
2023-04-23T16:12:28.185Z,11.03
2023-04-23T16:14:55.495Z,15.30
2023-04-23T16:17:22.683Z,12.37
2023-04-23T16:19:49.860Z,11.20
2023-04-23T16:22:17.590Z,11.47
2023-04-23T16:24:44.489Z,10.07
2023-04-23T16:27:12.069Z,10.33
2023-04-23T16:29:39.503Z,20.27
2023-04-23T16:32:07.415Z,14.10
2023-04-23T16:34:34.365Z,12.57
2023-04-23T16:37:01.456Z,9.67
2023-04-23T16:39:28.508Z,9.33
2023-04-23T16:41:55.466Z,11.23
2023-04-23T16:44:22.321Z,9.27
2023-04-23T16:46:49.380Z,8.90
2023-04-23T16:49:16.359Z,14.13
2023-04-23T16:51:43.288Z,7.80
2023-04-23T16:54:10.500Z,11.17
2023-04-23T16:56:37.746Z,16.57
2023-04-23T16:59:04.963Z,9.07
2023-04-23T17:01:31.943Z,14.10
2023-04-23T17:03:59.054Z,10.63
2023-04-23T17:06:30.691Z,10.17
2023-04-23T17:09:00.189Z,19.93
2023-04-23T17:11:28.296Z,27.37
2023-04-23T17:13:55.971Z,17.17
2023-04-23T17:16:25.219Z,9.87
2023-04-23T17:18:52.829Z,44.93
2023-04-23T17:21:20.591Z,12.53
2023-04-23T17:23:47.870Z,10.53
2023-04-23T17:26:15.035Z,47.30
2023-04-23T17:28:42.148Z,26.83
2023-04-23T17:31:09.230Z,9.97
2023-04-23T17:33:36.189Z,13.77
2023-04-23T17:36:03.287Z,11.57
2023-04-23T17:38:30.352Z,10.97
2023-04-23T17:40:57.693Z,11.37
2023-04-23T17:43:24.623Z,10.77
2023-04-23T17:45:51.696Z,13.33
2023-04-23T17:48:20.726Z,13.20
2023-04-23T17:50:49.290Z,15.73
2023-04-23T17:53:16.391Z,13.43
2023-04-23T17:55:43.627Z,13.70
2023-04-23T17:58:10.632Z,15.23
2023-04-23T18:00:44.830Z,18.07
2023-04-23T18:03:16.416Z,17.77
2023-04-23T18:05:43.722Z,15.67
2023-04-23T18:08:10.794Z,15.07
2023-04-23T18:10:37.946Z,17.93
2023-04-23T18:13:06.445Z,20.27
2023-04-23T18:15:33.398Z,19.93
2023-04-23T18:18:00.698Z,16.73
2023-04-23T18:20:28.043Z,20.10
2023-04-23T18:22:54.940Z,17.17
2023-04-23T18:25:22.470Z,17.27
2023-04-23T18:27:49.719Z,21.50
2023-04-23T18:30:17.776Z,17.37
2023-04-23T18:32:50.056Z,19.80
2023-04-23T18:35:17.742Z,21.17
2023-04-23T18:38:10.025Z,18.30
2023-04-23T18:40:37.062Z,17.80
2023-04-23T18:43:04.010Z,21.00
2023-04-23T18:45:30.951Z,19.27
2023-04-23T18:48:03.736Z,22.77
2023-04-23T18:50:43.545Z,22.30
2023-04-23T18:53:10.631Z,20.40
2023-04-23T18:55:37.515Z,23.20
2023-04-23T18:58:04.692Z,20.53
2023-04-23T19:00:31.714Z,18.90
2023-04-23T19:02:58.964Z,22.03
2023-04-23T19:05:26.553Z,23.10
2023-04-23T19:07:53.591Z,23.43
2023-04-23T19:10:20.641Z,20.73
2023-04-23T19:12:47.521Z,21.13
2023-04-23T19:15:15.678Z,22.17
2023-04-23T19:17:42.769Z,23.77
2023-04-23T19:20:11.465Z,20.30
2023-04-23T19:22:41.375Z,21.50
2023-04-23T19:25:09.860Z,22.20
2023-04-23T19:27:36.843Z,22.20
2023-04-23T19:30:10.117Z,25.00
2023-04-23T19:32:37.128Z,20.77
2023-04-23T19:35:07.162Z,21.23
2023-04-23T19:37:34.096Z,22.47
2023-04-23T19:40:01.065Z,24.90
2023-04-23T19:42:29.992Z,23.80
2023-04-23T19:44:57.027Z,23.33
2023-04-23T19:47:24.000Z,21.43
2023-04-23T19:49:51.463Z,22.03
2023-04-23T19:52:22.914Z,24.00
2023-04-23T19:54:49.920Z,22.30
2023-04-23T19:57:22.142Z,22.50
2023-04-23T19:59:49.669Z,22.27
2023-04-23T20:02:16.968Z,24.90
2023-04-23T20:04:45.731Z,27.23
2023-04-23T20:07:12.931Z,30.17
2023-04-23T20:09:42.021Z,24.07
2023-04-23T20:12:09.191Z,25.50
2023-04-23T20:14:36.125Z,23.17
2023-04-23T20:17:03.238Z,27.37
2023-04-23T20:19:30.776Z,21.90
2023-04-23T20:21:57.736Z,28.23
2023-04-23T20:24:24.691Z,23.20
2023-04-23T20:26:51.588Z,22.70
2023-04-23T20:29:18.481Z,25.90
2023-04-23T20:31:49.527Z,27.70
2023-04-23T20:34:17.264Z,31.80
2023-04-23T20:36:47.073Z,24.40
2023-04-23T20:39:15.033Z,27.53
2023-04-23T20:41:42.295Z,25.57
2023-04-23T20:44:09.776Z,25.10
2023-04-23T20:46:36.990Z,26.53
2023-04-23T20:49:04.429Z,27.00
2023-04-23T20:51:34.598Z,25.33
2023-04-23T20:54:02.263Z,25.13
2023-04-23T20:56:29.931Z,24.00
2023-04-23T20:58:57.719Z,22.27
2023-04-23T21:01:25.649Z,22.17
2023-04-23T21:03:53.681Z,25.10
2023-04-23T21:06:21.682Z,21.60
2023-04-23T21:08:48.908Z,20.43
2023-04-23T21:11:18.217Z,22.23
2023-04-23T21:13:48.223Z,21.20
2023-04-23T21:16:15.435Z,21.97
2023-04-23T21:18:43.861Z,19.00
2023-04-23T21:21:11.060Z,15.50
2023-04-23T21:23:38.029Z,16.53
2023-04-23T21:26:05.710Z,14.47
2023-04-23T21:28:32.673Z,15.27
2023-04-23T21:31:13.843Z,13.73
2023-04-23T21:33:40.944Z,13.87
2023-04-23T21:36:07.931Z,11.13
2023-04-23T21:38:34.906Z,11.17
2023-04-23T21:41:02.377Z,9.60
2023-04-23T21:43:29.910Z,7.80
2023-04-23T21:45:56.856Z,8.03
2023-04-23T21:48:23.994Z,7.73
2023-04-23T21:50:51.753Z,7.40
2023-04-23T21:53:18.671Z,7.47
2023-04-23T21:55:45.797Z,6.63
2023-04-23T21:58:17.795Z,10.37
2023-04-23T22:00:45.916Z,10.43
2023-04-23T22:03:20.392Z,5.33
2023-04-23T22:06:01.460Z,4.77
2023-04-23T22:08:30.253Z,4.50
2023-04-23T22:10:57.212Z,7.40
2023-04-23T22:13:24.141Z,6.33
2023-04-23T22:15:51.106Z,7.17
2023-04-23T22:18:18.038Z,7.63
2023-04-23T22:20:48.379Z,5.67
2023-04-23T22:23:15.737Z,5.83
2023-04-23T22:25:42.787Z,7.13
2023-04-23T22:28:09.653Z,6.60
2023-04-23T22:30:36.610Z,5.10
2023-04-23T22:33:04.417Z,6.53
2023-04-23T22:35:31.615Z,5.57
2023-04-23T22:37:58.609Z,4.70
2023-04-23T22:40:25.524Z,3.30
2023-04-23T22:42:52.499Z,4.67
2023-04-23T22:45:19.493Z,4.40
2023-04-23T22:47:46.776Z,5.20
2023-04-23T22:50:13.758Z,4.87
2023-04-23T22:52:41.445Z,4.27
2023-04-23T22:55:08.690Z,6.27
2023-04-23T22:57:36.244Z,6.80
2023-04-23T23:00:07.222Z,4.83
2023-04-23T23:02:34.203Z,5.70
2023-04-23T23:05:01.473Z,4.30
2023-04-23T23:07:28.455Z,3.83
2023-04-23T23:09:55.743Z,4.17
2023-04-23T23:12:22.678Z,3.83
2023-04-23T23:14:50.152Z,5.20
2023-04-23T23:17:17.071Z,4.57
2023-04-23T23:19:44.472Z,4.77
2023-04-23T23:22:11.951Z,4.60
2023-04-23T23:24:38.853Z,6.03
2023-04-23T23:27:05.946Z,3.73
2023-04-23T23:29:32.958Z,4.17
2023-04-23T23:31:59.994Z,3.97
2023-04-23T23:34:26.864Z,5.50
2023-04-23T23:36:53.834Z,5.77
2023-04-23T23:39:21.171Z,4.03
2023-04-23T23:41:48.121Z,4.83
2023-04-23T23:44:16.581Z,4.70
2023-04-23T23:46:43.757Z,3.50
2023-04-23T23:49:11.071Z,6.33
2023-04-23T23:51:38.049Z,3.70
2023-04-23T23:54:05.977Z,6.30
2023-04-23T23:56:32.910Z,3.30
2023-04-23T23:58:59.803Z,4.30
